sensor_id;sensor_type;location;lat;lon;timestamp;P1;durP1;ratioP1;P2;durP2;ratioP2
49235;SDS011;35067;48.134;8.378;2022-12-18T00:00:08;17.63;;;8.63;;
49235;SDS011;35067;48.134;8.378;2022-12-18T00:02:10;26.88;;;10.82;;
49235;SDS011;35067;48.134;8.378;2022-12-18T00:04:15;15.97;;;8.40;;
49235;SDS011;35067;48.134;8.378;2022-12-18T00:06:23;16.90;;;8.48;;
49235;SDS011;35067;48.134;8.378;2022-12-18T00:08:25;25.20;;;10.55;;
49235;SDS011;35067;48.134;8.378;2022-12-18T00:10:27;22.37;;;10.43;;
49235;SDS011;35067;48.134;8.378;2022-12-18T00:12:28;21.65;;;9.27;;
49235;SDS011;35067;48.134;8.378;2022-12-18T00:14:29;21.87;;;10.83;;
49235;SDS011;35067;48.134;8.378;2022-12-18T00:16:30;22.80;;;9.03;;
49235;SDS011;35067;48.134;8.378;2022-12-18T00:18:32;25.13;;;10.75;;
49235;SDS011;35067;48.134;8.378;2022-12-18T00:20:37;28.83;;;10.70;;
49235;SDS011;35067;48.134;8.378;2022-12-18T00:22:39;35.45;;;13.20;;
49235;SDS011;35067;48.134;8.378;2022-12-18T00:24:40;21.50;;;9.60;;
49235;SDS011;35067;48.134;8.378;2022-12-18T00:26:40;27.50;;;9.37;;
49235;SDS011;35067;48.134;8.378;2022-12-18T00:28:41;24.67;;;9.03;;
49235;SDS011;35067;48.134;8.378;2022-12-18T00:30:44;26.63;;;10.33;;
49235;SDS011;35067;48.134;8.378;2022-12-18T00:32:44;20.87;;;9.73;;
49235;SDS011;35067;48.134;8.378;2022-12-18T00:34:45;25.57;;;10.37;;
49235;SDS011;35067;48.134;8.378;2022-12-18T00:36:47;18.07;;;8.23;;
49235;SDS011;35067;48.134;8.378;2022-12-18T00:38:48;16.98;;;8.10;;
49235;SDS011;35067;48.134;8.378;2022-12-18T00:40:49;20.13;;;9.27;;
49235;SDS011;35067;48.134;8.378;2022-12-18T00:42:50;21.07;;;8.77;;
49235;SDS011;35067;48.134;8.378;2022-12-18T00:44:56;21.10;;;9.30;;
49235;SDS011;35067;48.134;8.378;2022-12-18T00:46:58;14.07;;;8.90;;
49235;SDS011;35067;48.134;8.378;2022-12-18T00:48:59;17.67;;;8.85;;
49235;SDS011;35067;48.134;8.378;2022-12-18T00:50:59;18.50;;;8.73;;
49235;SDS011;35067;48.134;8.378;2022-12-18T00:53:00;20.57;;;9.60;;
49235;SDS011;35067;48.134;8.378;2022-12-18T00:55:01;20.77;;;10.00;;
49235;SDS011;35067;48.134;8.378;2022-12-18T00:57:01;28.00;;;10.87;;
49235;SDS011;35067;48.134;8.378;2022-12-18T00:59:02;16.10;;;7.87;;
49235;SDS011;35067;48.134;8.378;2022-12-18T01:01:04;15.37;;;7.67;;
49235;SDS011;35067;48.134;8.378;2022-12-18T01:03:05;26.02;;;9.57;;
49235;SDS011;35067;48.134;8.378;2022-12-18T01:05:06;20.67;;;9.20;;
49235;SDS011;35067;48.134;8.378;2022-12-18T01:07:09;17.05;;;7.43;;
49235;SDS011;35067;48.134;8.378;2022-12-18T01:09:10;20.47;;;9.00;;
49235;SDS011;35067;48.134;8.378;2022-12-18T01:11:12;30.03;;;10.33;;
49235;SDS011;35067;48.134;8.378;2022-12-18T01:13:18;22.83;;;9.30;;
49235;SDS011;35067;48.134;8.378;2022-12-18T01:15:19;24.23;;;9.27;;
49235;SDS011;35067;48.134;8.378;2022-12-18T01:17:20;26.05;;;10.18;;
49235;SDS011;35067;48.134;8.378;2022-12-18T01:19:21;44.33;;;11.35;;
49235;SDS011;35067;48.134;8.378;2022-12-18T01:21:23;16.70;;;8.33;;
49235;SDS011;35067;48.134;8.378;2022-12-18T01:23:24;28.13;;;10.17;;
49235;SDS011;35067;48.134;8.378;2022-12-18T01:25:25;21.37;;;9.17;;
49235;SDS011;35067;48.134;8.378;2022-12-18T01:27:25;20.57;;;9.33;;
49235;SDS011;35067;48.134;8.378;2022-12-18T01:29:26;25.93;;;11.47;;
49235;SDS011;35067;48.134;8.378;2022-12-18T01:31:28;40.63;;;11.23;;
49235;SDS011;35067;48.134;8.378;2022-12-18T01:33:31;30.57;;;10.77;;
49235;SDS011;35067;48.134;8.378;2022-12-18T01:35:32;20.57;;;9.80;;
49235;SDS011;35067;48.134;8.378;2022-12-18T01:37:32;23.50;;;8.50;;
49235;SDS011;35067;48.134;8.378;2022-12-18T01:39:33;30.83;;;10.70;;
49235;SDS011;35067;48.134;8.378;2022-12-18T01:41:34;22.63;;;8.57;;
49235;SDS011;35067;48.134;8.378;2022-12-18T01:43:55;20.37;;;9.73;;
49235;SDS011;35067;48.134;8.378;2022-12-18T01:45:59;23.90;;;10.57;;
49235;SDS011;35067;48.134;8.378;2022-12-18T01:48:03;21.67;;;9.93;;
49235;SDS011;35067;48.134;8.378;2022-12-18T01:52:15;16.07;;;8.33;;
49235;SDS011;35067;48.134;8.378;2022-12-18T01:54:17;20.50;;;9.47;;
49235;SDS011;35067;48.134;8.378;2022-12-18T01:56:18;21.50;;;9.73;;
49235;SDS011;35067;48.134;8.378;2022-12-18T01:58:22;21.10;;;9.20;;
49235;SDS011;35067;48.134;8.378;2022-12-18T02:00:55;23.13;;;9.17;;
49235;SDS011;35067;48.134;8.378;2022-12-18T02:02:55;24.20;;;10.13;;
49235;SDS011;35067;48.134;8.378;2022-12-18T02:04:57;21.63;;;10.40;;
49235;SDS011;35067;48.134;8.378;2022-12-18T02:09:40;24.33;;;9.47;;
49235;SDS011;35067;48.134;8.378;2022-12-18T02:12:21;24.80;;;10.07;;
49235;SDS011;35067;48.134;8.378;2022-12-18T02:14:38;24.13;;;9.20;;
49235;SDS011;35067;48.134;8.378;2022-12-18T02:16:58;20.90;;;8.40;;
49235;SDS011;35067;48.134;8.378;2022-12-18T02:24:35;20.50;;;8.90;;
49235;SDS011;35067;48.134;8.378;2022-12-18T02:26:49;20.47;;;8.43;;
49235;SDS011;35067;48.134;8.378;2022-12-18T02:29:05;23.63;;;9.63;;
49235;SDS011;35067;48.134;8.378;2022-12-18T02:31:17;28.03;;;10.60;;
49235;SDS011;35067;48.134;8.378;2022-12-18T02:33:28;29.43;;;10.40;;
49235;SDS011;35067;48.134;8.378;2022-12-18T02:35:31;22.83;;;9.30;;
49235;SDS011;35067;48.134;8.378;2022-12-18T02:37:34;53.10;;;8.67;;
49235;SDS011;35067;48.134;8.378;2022-12-18T02:39:38;25.43;;;10.90;;
49235;SDS011;35067;48.134;8.378;2022-12-18T02:41:42;22.30;;;9.50;;
49235;SDS011;35067;48.134;8.378;2022-12-18T02:43:46;23.20;;;10.03;;
49235;SDS011;35067;48.134;8.378;2022-12-18T02:45:52;26.90;;;10.83;;
49235;SDS011;35067;48.134;8.378;2022-12-18T02:47:56;20.63;;;10.53;;
49235;SDS011;35067;48.134;8.378;2022-12-18T02:52:06;26.73;;;10.23;;
49235;SDS011;35067;48.134;8.378;2022-12-18T02:54:26;23.47;;;9.73;;
49235;SDS011;35067;48.134;8.378;2022-12-18T02:56:52;25.60;;;9.93;;
49235;SDS011;35067;48.134;8.378;2022-12-18T02:58:58;23.23;;;8.83;;
49235;SDS011;35067;48.134;8.378;2022-12-18T03:03:29;25.37;;;9.40;;
49235;SDS011;35067;48.134;8.378;2022-12-18T03:05:40;23.23;;;9.87;;
49235;SDS011;35067;48.134;8.378;2022-12-18T03:07:49;26.13;;;10.13;;
49235;SDS011;35067;48.134;8.378;2022-12-18T03:10:16;20.90;;;9.40;;
49235;SDS011;35067;48.134;8.378;2022-12-18T03:12:27;16.83;;;7.77;;
49235;SDS011;35067;48.134;8.378;2022-12-18T03:14:32;22.77;;;9.47;;
49235;SDS011;35067;48.134;8.378;2022-12-18T03:16:35;24.37;;;9.53;;
49235;SDS011;35067;48.134;8.378;2022-12-18T03:18:39;21.20;;;9.50;;
49235;SDS011;35067;48.134;8.378;2022-12-18T03:20:47;22.57;;;10.47;;
49235;SDS011;35067;48.134;8.378;2022-12-18T03:22:52;28.07;;;12.37;;
49235;SDS011;35067;48.134;8.378;2022-12-18T03:25:00;19.63;;;8.80;;
49235;SDS011;35067;48.134;8.378;2022-12-18T03:27:05;25.57;;;9.77;;
49235;SDS011;35067;48.134;8.378;2022-12-18T03:29:18;23.43;;;9.43;;
49235;SDS011;35067;48.134;8.378;2022-12-18T03:31:24;21.20;;;8.80;;
49235;SDS011;35067;48.134;8.378;2022-12-18T03:33:37;27.20;;;11.37;;
49235;SDS011;35067;48.134;8.378;2022-12-18T03:35:46;23.27;;;9.83;;
49235;SDS011;35067;48.134;8.378;2022-12-18T03:37:47;24.60;;;9.33;;
49235;SDS011;35067;48.134;8.378;2022-12-18T03:39:48;18.20;;;8.07;;
49235;SDS011;35067;48.134;8.378;2022-12-18T03:42:49;25.17;;;8.17;;
49235;SDS011;35067;48.134;8.378;2022-12-18T03:47:08;21.27;;;8.43;;
49235;SDS011;35067;48.134;8.378;2022-12-18T03:51:28;17.70;;;8.07;;
49235;SDS011;35067;48.134;8.378;2022-12-18T03:53:36;23.37;;;9.80;;
49235;SDS011;35067;48.134;8.378;2022-12-18T03:55:53;23.33;;;9.33;;
49235;SDS011;35067;48.134;8.378;2022-12-18T03:57:56;25.93;;;10.77;;
49235;SDS011;35067;48.134;8.378;2022-12-18T04:00:00;25.93;;;10.30;;
49235;SDS011;35067;48.134;8.378;2022-12-18T04:02:11;29.40;;;10.73;;
49235;SDS011;35067;48.134;8.378;2022-12-18T04:04:12;29.17;;;10.67;;
49235;SDS011;35067;48.134;8.378;2022-12-18T04:06:13;20.57;;;8.43;;
49235;SDS011;35067;48.134;8.378;2022-12-18T04:08:16;26.73;;;10.63;;
49235;SDS011;35067;48.134;8.378;2022-12-18T04:10:18;24.08;;;10.35;;
49235;SDS011;35067;48.134;8.378;2022-12-18T04:12:19;24.33;;;9.67;;
49235;SDS011;35067;48.134;8.378;2022-12-18T04:14:19;37.73;;;11.47;;
49235;SDS011;35067;48.134;8.378;2022-12-18T04:16:20;28.93;;;10.50;;
49235;SDS011;35067;48.134;8.378;2022-12-18T04:18:21;25.63;;;10.87;;
49235;SDS011;35067;48.134;8.378;2022-12-18T04:20:21;37.33;;;14.33;;
49235;SDS011;35067;48.134;8.378;2022-12-18T04:22:22;28.03;;;11.40;;
49235;SDS011;35067;48.134;8.378;2022-12-18T04:24:23;30.10;;;12.07;;
49235;SDS011;35067;48.134;8.378;2022-12-18T04:26:23;26.17;;;9.60;;
49235;SDS011;35067;48.134;8.378;2022-12-18T04:28:24;29.90;;;11.27;;
49235;SDS011;35067;48.134;8.378;2022-12-18T04:30:25;23.40;;;8.97;;
49235;SDS011;35067;48.134;8.378;2022-12-18T04:32:25;32.23;;;12.37;;
49235;SDS011;35067;48.134;8.378;2022-12-18T04:34:26;29.87;;;11.73;;
49235;SDS011;35067;48.134;8.378;2022-12-18T04:36:26;31.27;;;10.53;;
49235;SDS011;35067;48.134;8.378;2022-12-18T04:38:27;26.60;;;11.13;;
49235;SDS011;35067;48.134;8.378;2022-12-18T04:40:28;28.43;;;10.97;;
49235;SDS011;35067;48.134;8.378;2022-12-18T04:42:29;27.30;;;8.80;;
49235;SDS011;35067;48.134;8.378;2022-12-18T04:44:29;28.67;;;10.57;;
49235;SDS011;35067;48.134;8.378;2022-12-18T04:46:30;25.20;;;11.50;;
49235;SDS011;35067;48.134;8.378;2022-12-18T04:48:31;18.83;;;9.13;;
49235;SDS011;35067;48.134;8.378;2022-12-18T04:50:32;33.20;;;11.50;;
49235;SDS011;35067;48.134;8.378;2022-12-18T04:52:33;24.77;;;11.13;;
49235;SDS011;35067;48.134;8.378;2022-12-18T04:54:33;27.73;;;11.87;;
49235;SDS011;35067;48.134;8.378;2022-12-18T04:56:34;21.50;;;10.03;;
49235;SDS011;35067;48.134;8.378;2022-12-18T04:58:35;25.10;;;10.03;;
49235;SDS011;35067;48.134;8.378;2022-12-18T05:00:37;29.25;;;11.90;;
49235;SDS011;35067;48.134;8.378;2022-12-18T05:02:38;22.23;;;9.50;;
49235;SDS011;35067;48.134;8.378;2022-12-18T05:04:38;33.20;;;13.17;;
49235;SDS011;35067;48.134;8.378;2022-12-18T05:06:39;25.50;;;10.93;;
49235;SDS011;35067;48.134;8.378;2022-12-18T05:08:40;33.17;;;12.13;;
49235;SDS011;35067;48.134;8.378;2022-12-18T05:10:40;27.07;;;11.23;;
49235;SDS011;35067;48.134;8.378;2022-12-18T05:12:41;24.80;;;10.57;;
49235;SDS011;35067;48.134;8.378;2022-12-18T05:15:00;26.17;;;11.57;;
49235;SDS011;35067;48.134;8.378;2022-12-18T05:17:00;28.43;;;13.50;;
49235;SDS011;35067;48.134;8.378;2022-12-18T05:19:01;25.07;;;11.37;;
49235;SDS011;35067;48.134;8.378;2022-12-18T05:21:02;32.20;;;12.33;;
49235;SDS011;35067;48.134;8.378;2022-12-18T05:23:03;27.67;;;10.00;;
49235;SDS011;35067;48.134;8.378;2022-12-18T05:25:04;32.77;;;11.47;;
49235;SDS011;35067;48.134;8.378;2022-12-18T05:27:05;34.15;;;11.63;;
49235;SDS011;35067;48.134;8.378;2022-12-18T05:29:05;34.60;;;12.73;;
49235;SDS011;35067;48.134;8.378;2022-12-18T05:31:06;29.07;;;10.43;;
49235;SDS011;35067;48.134;8.378;2022-12-18T05:33:07;31.67;;;11.37;;
49235;SDS011;35067;48.134;8.378;2022-12-18T05:35:08;26.63;;;10.33;;
49235;SDS011;35067;48.134;8.378;2022-12-18T05:37:10;26.73;;;11.23;;
49235;SDS011;35067;48.134;8.378;2022-12-18T05:39:11;22.43;;;10.20;;
49235;SDS011;35067;48.134;8.378;2022-12-18T05:41:12;27.47;;;11.67;;
49235;SDS011;35067;48.134;8.378;2022-12-18T05:43:12;34.33;;;11.43;;
49235;SDS011;35067;48.134;8.378;2022-12-18T05:45:13;30.57;;;12.37;;
49235;SDS011;35067;48.134;8.378;2022-12-18T05:47:14;30.10;;;11.90;;
49235;SDS011;35067;48.134;8.378;2022-12-18T05:49:14;32.27;;;13.43;;
49235;SDS011;35067;48.134;8.378;2022-12-18T05:51:16;32.23;;;12.03;;
49235;SDS011;35067;48.134;8.378;2022-12-18T05:53:19;28.97;;;11.00;;
49235;SDS011;35067;48.134;8.378;2022-12-18T05:55:20;28.90;;;11.33;;
49235;SDS011;35067;48.134;8.378;2022-12-18T05:57:21;28.93;;;11.20;;
49235;SDS011;35067;48.134;8.378;2022-12-18T05:59:22;27.93;;;12.63;;
49235;SDS011;35067;48.134;8.378;2022-12-18T06:01:24;34.30;;;11.30;;
49235;SDS011;35067;48.134;8.378;2022-12-18T06:03:26;38.03;;;13.27;;
49235;SDS011;35067;48.134;8.378;2022-12-18T06:05:27;31.37;;;11.37;;
49235;SDS011;35067;48.134;8.378;2022-12-18T06:07:28;18.67;;;8.40;;
49235;SDS011;35067;48.134;8.378;2022-12-18T06:09:28;31.07;;;11.10;;
49235;SDS011;35067;48.134;8.378;2022-12-18T06:11:29;31.67;;;11.80;;
49235;SDS011;35067;48.134;8.378;2022-12-18T06:13:30;32.67;;;13.47;;
49235;SDS011;35067;48.134;8.378;2022-12-18T06:15:30;25.03;;;8.73;;
49235;SDS011;35067;48.134;8.378;2022-12-18T06:17:32;27.83;;;10.20;;
49235;SDS011;35067;48.134;8.378;2022-12-18T06:19:34;27.65;;;9.90;;
49235;SDS011;35067;48.134;8.378;2022-12-18T06:21:34;35.93;;;12.77;;
49235;SDS011;35067;48.134;8.378;2022-12-18T06:23:35;31.37;;;11.47;;
49235;SDS011;35067;48.134;8.378;2022-12-18T06:25:39;28.03;;;11.40;;
49235;SDS011;35067;48.134;8.378;2022-12-18T06:27:39;24.27;;;10.77;;
49235;SDS011;35067;48.134;8.378;2022-12-18T06:29:40;27.93;;;10.97;;
49235;SDS011;35067;48.134;8.378;2022-12-18T06:31:41;20.73;;;8.93;;
49235;SDS011;35067;48.134;8.378;2022-12-18T06:33:42;38.93;;;14.03;;
49235;SDS011;35067;48.134;8.378;2022-12-18T06:35:42;36.47;;;11.93;;
49235;SDS011;35067;48.134;8.378;2022-12-18T06:37:43;41.97;;;15.27;;
49235;SDS011;35067;48.134;8.378;2022-12-18T06:39:43;26.87;;;10.03;;
49235;SDS011;35067;48.134;8.378;2022-12-18T06:41:44;32.37;;;12.80;;
49235;SDS011;35067;48.134;8.378;2022-12-18T06:43:45;31.07;;;12.63;;
49235;SDS011;35067;48.134;8.378;2022-12-18T06:45:46;30.67;;;12.60;;
49235;SDS011;35067;48.134;8.378;2022-12-18T06:47:52;28.27;;;10.80;;
49235;SDS011;35067;48.134;8.378;2022-12-18T06:49:53;33.93;;;12.20;;
49235;SDS011;35067;48.134;8.378;2022-12-18T06:51:54;31.77;;;11.57;;
49235;SDS011;35067;48.134;8.378;2022-12-18T06:53:54;31.07;;;12.90;;
49235;SDS011;35067;48.134;8.378;2022-12-18T06:56:05;36.40;;;13.20;;
49235;SDS011;35067;48.134;8.378;2022-12-18T06:58:07;39.08;;;12.55;;
49235;SDS011;35067;48.134;8.378;2022-12-18T07:00:08;22.40;;;9.50;;
49235;SDS011;35067;48.134;8.378;2022-12-18T07:02:12;23.20;;;9.65;;
49235;SDS011;35067;48.134;8.378;2022-12-18T07:04:13;30.23;;;11.77;;
49235;SDS011;35067;48.134;8.378;2022-12-18T07:06:14;35.37;;;13.83;;
49235;SDS011;35067;48.134;8.378;2022-12-18T07:08:18;33.97;;;13.20;;
49235;SDS011;35067;48.134;8.378;2022-12-18T07:10:19;30.60;;;11.80;;
49235;SDS011;35067;48.134;8.378;2022-12-18T07:12:20;31.93;;;12.70;;
49235;SDS011;35067;48.134;8.378;2022-12-18T07:14:20;35.50;;;13.70;;
49235;SDS011;35067;48.134;8.378;2022-12-18T07:16:21;30.07;;;11.40;;
49235;SDS011;35067;48.134;8.378;2022-12-18T07:18:22;33.77;;;12.70;;
49235;SDS011;35067;48.134;8.378;2022-12-18T07:20:23;31.37;;;13.13;;
49235;SDS011;35067;48.134;8.378;2022-12-18T07:22:24;36.17;;;13.03;;
49235;SDS011;35067;48.134;8.378;2022-12-18T07:24:25;26.17;;;11.33;;
49235;SDS011;35067;48.134;8.378;2022-12-18T07:26:26;35.27;;;15.07;;
49235;SDS011;35067;48.134;8.378;2022-12-18T07:28:27;34.17;;;13.17;;
49235;SDS011;35067;48.134;8.378;2022-12-18T07:30:28;35.03;;;13.00;;
49235;SDS011;35067;48.134;8.378;2022-12-18T07:32:29;37.00;;;14.63;;
49235;SDS011;35067;48.134;8.378;2022-12-18T07:34:30;31.17;;;14.83;;
49235;SDS011;35067;48.134;8.378;2022-12-18T07:36:31;27.73;;;11.23;;
49235;SDS011;35067;48.134;8.378;2022-12-18T07:38:32;46.80;;;23.23;;
49235;SDS011;35067;48.134;8.378;2022-12-18T07:40:34;31.60;;;14.10;;
49235;SDS011;35067;48.134;8.378;2022-12-18T07:42:35;33.50;;;13.90;;
49235;SDS011;35067;48.134;8.378;2022-12-18T07:44:36;29.77;;;13.57;;
49235;SDS011;35067;48.134;8.378;2022-12-18T07:46:37;28.90;;;12.63;;
49235;SDS011;35067;48.134;8.378;2022-12-18T07:48:38;35.17;;;13.60;;
49235;SDS011;35067;48.134;8.378;2022-12-18T07:50:40;25.17;;;10.83;;
49235;SDS011;35067;48.134;8.378;2022-12-18T07:52:41;33.97;;;14.53;;
49235;SDS011;35067;48.134;8.378;2022-12-18T07:54:41;26.30;;;12.03;;
49235;SDS011;35067;48.134;8.378;2022-12-18T07:56:42;38.23;;;13.87;;
49235;SDS011;35067;48.134;8.378;2022-12-18T07:58:43;25.10;;;10.50;;
49235;SDS011;35067;48.134;8.378;2022-12-18T08:00:44;37.73;;;14.50;;
49235;SDS011;35067;48.134;8.378;2022-12-18T08:02:44;33.33;;;12.40;;
49235;SDS011;35067;48.134;8.378;2022-12-18T08:04:46;34.07;;;13.57;;
49235;SDS011;35067;48.134;8.378;2022-12-18T08:06:47;22.77;;;9.40;;
49235;SDS011;35067;48.134;8.378;2022-12-18T08:08:47;34.07;;;13.27;;
49235;SDS011;35067;48.134;8.378;2022-12-18T08:10:48;31.37;;;12.53;;
49235;SDS011;35067;48.134;8.378;2022-12-18T08:12:50;27.60;;;11.47;;
49235;SDS011;35067;48.134;8.378;2022-12-18T08:14:51;26.20;;;10.55;;
49235;SDS011;35067;48.134;8.378;2022-12-18T08:16:51;22.10;;;11.07;;
49235;SDS011;35067;48.134;8.378;2022-12-18T08:18:53;29.73;;;12.70;;
49235;SDS011;35067;48.134;8.378;2022-12-18T08:20:54;28.57;;;9.53;;
49235;SDS011;35067;48.134;8.378;2022-12-18T08:22:56;31.00;;;12.67;;
49235;SDS011;35067;48.134;8.378;2022-12-18T08:24:57;32.70;;;12.03;;
49235;SDS011;35067;48.134;8.378;2022-12-18T08:26:58;30.50;;;12.43;;
49235;SDS011;35067;48.134;8.378;2022-12-18T08:28:59;36.03;;;13.17;;
49235;SDS011;35067;48.134;8.378;2022-12-18T08:31:00;25.90;;;10.80;;
49235;SDS011;35067;48.134;8.378;2022-12-18T08:33:01;27.33;;;11.60;;
49235;SDS011;35067;48.134;8.378;2022-12-18T08:35:02;30.27;;;12.07;;
49235;SDS011;35067;48.134;8.378;2022-12-18T08:37:03;23.13;;;10.43;;
49235;SDS011;35067;48.134;8.378;2022-12-18T08:39:04;29.57;;;12.40;;
49235;SDS011;35067;48.134;8.378;2022-12-18T08:41:05;33.20;;;13.80;;
49235;SDS011;35067;48.134;8.378;2022-12-18T08:43:12;28.10;;;11.07;;
49235;SDS011;35067;48.134;8.378;2022-12-18T08:45:31;26.50;;;10.57;;
49235;SDS011;35067;48.134;8.378;2022-12-18T08:47:32;31.60;;;12.07;;
49235;SDS011;35067;48.134;8.378;2022-12-18T08:49:33;29.73;;;13.37;;
49235;SDS011;35067;48.134;8.378;2022-12-18T08:51:34;21.73;;;10.57;;
49235;SDS011;35067;48.134;8.378;2022-12-18T08:53:36;31.40;;;13.17;;
49235;SDS011;35067;48.134;8.378;2022-12-18T08:55:37;28.37;;;12.30;;
49235;SDS011;35067;48.134;8.378;2022-12-18T08:57:38;28.90;;;11.93;;
49235;SDS011;35067;48.134;8.378;2022-12-18T08:59:38;30.70;;;11.03;;
49235;SDS011;35067;48.134;8.378;2022-12-18T09:01:39;31.77;;;12.90;;
49235;SDS011;35067;48.134;8.378;2022-12-18T09:03:40;28.33;;;12.13;;
49235;SDS011;35067;48.134;8.378;2022-12-18T09:05:40;26.87;;;11.10;;
49235;SDS011;35067;48.134;8.378;2022-12-18T09:07:41;28.13;;;11.90;;
49235;SDS011;35067;48.134;8.378;2022-12-18T09:09:42;29.83;;;13.97;;
49235;SDS011;35067;48.134;8.378;2022-12-18T09:11:42;28.27;;;12.77;;
49235;SDS011;35067;48.134;8.378;2022-12-18T09:13:43;26.20;;;11.50;;
49235;SDS011;35067;48.134;8.378;2022-12-18T09:15:45;31.60;;;14.80;;
49235;SDS011;35067;48.134;8.378;2022-12-18T09:17:48;30.23;;;12.63;;
49235;SDS011;35067;48.134;8.378;2022-12-18T09:19:49;31.43;;;13.37;;
49235;SDS011;35067;48.134;8.378;2022-12-18T09:21:51;27.47;;;10.83;;
49235;SDS011;35067;48.134;8.378;2022-12-18T09:23:52;28.63;;;14.07;;
49235;SDS011;35067;48.134;8.378;2022-12-18T09:25:58;24.60;;;12.13;;
49235;SDS011;35067;48.134;8.378;2022-12-18T09:28:00;29.30;;;14.03;;
49235;SDS011;35067;48.134;8.378;2022-12-18T09:30:00;28.27;;;13.43;;
49235;SDS011;35067;48.134;8.378;2022-12-18T09:32:02;26.67;;;13.83;;
49235;SDS011;35067;48.134;8.378;2022-12-18T09:34:03;51.83;;;15.00;;
49235;SDS011;35067;48.134;8.378;2022-12-18T09:36:05;24.47;;;11.97;;
49235;SDS011;35067;48.134;8.378;2022-12-18T09:38:08;28.23;;;14.57;;
49235;SDS011;35067;48.134;8.378;2022-12-18T09:40:16;28.70;;;12.83;;
49235;SDS011;35067;48.134;8.378;2022-12-18T09:42:22;26.13;;;14.03;;
49235;SDS011;35067;48.134;8.378;2022-12-18T09:44:29;29.13;;;13.27;;
49235;SDS011;35067;48.134;8.378;2022-12-18T09:46:37;25.60;;;12.97;;
49235;SDS011;35067;48.134;8.378;2022-12-18T09:48:47;28.30;;;13.87;;
49235;SDS011;35067;48.134;8.378;2022-12-18T09:50:51;27.87;;;12.83;;
49235;SDS011;35067;48.134;8.378;2022-12-18T09:52:59;26.33;;;12.90;;
49235;SDS011;35067;48.134;8.378;2022-12-18T09:57:24;27.60;;;13.43;;
49235;SDS011;35067;48.134;8.378;2022-12-18T09:59:38;25.40;;;12.20;;
49235;SDS011;35067;48.134;8.378;2022-12-18T10:01:41;24.20;;;12.50;;
49235;SDS011;35067;48.134;8.378;2022-12-18T10:03:42;24.70;;;12.00;;
49235;SDS011;35067;48.134;8.378;2022-12-18T10:05:47;20.43;;;11.90;;
49235;SDS011;35067;48.134;8.378;2022-12-18T10:10:43;25.63;;;13.17;;
49235;SDS011;35067;48.134;8.378;2022-12-18T10:13:10;24.90;;;12.27;;
49235;SDS011;35067;48.134;8.378;2022-12-18T10:17:38;26.37;;;13.67;;
49235;SDS011;35067;48.134;8.378;2022-12-18T10:27:24;26.03;;;13.10;;
49235;SDS011;35067;48.134;8.378;2022-12-18T10:29:27;22.30;;;12.03;;
49235;SDS011;35067;48.134;8.378;2022-12-18T10:31:27;25.53;;;12.17;;
49235;SDS011;35067;48.134;8.378;2022-12-18T10:33:29;23.40;;;13.17;;
49235;SDS011;35067;48.134;8.378;2022-12-18T10:35:31;26.10;;;13.13;;
49235;SDS011;35067;48.134;8.378;2022-12-18T10:37:32;26.60;;;13.13;;
49235;SDS011;35067;48.134;8.378;2022-12-18T10:39:33;25.03;;;13.40;;
49235;SDS011;35067;48.134;8.378;2022-12-18T10:41:33;22.90;;;12.37;;
49235;SDS011;35067;48.134;8.378;2022-12-18T10:43:38;23.43;;;13.23;;
49235;SDS011;35067;48.134;8.378;2022-12-18T10:45:41;28.17;;;14.67;;
49235;SDS011;35067;48.134;8.378;2022-12-18T10:47:43;26.37;;;13.10;;
49235;SDS011;35067;48.134;8.378;2022-12-18T10:49:47;25.63;;;14.53;;
49235;SDS011;35067;48.134;8.378;2022-12-18T10:52:05;25.00;;;12.77;;
49235;SDS011;35067;48.134;8.378;2022-12-18T10:54:23;25.17;;;13.77;;
49235;SDS011;35067;48.134;8.378;2022-12-18T10:56:26;25.30;;;13.67;;
49235;SDS011;35067;48.134;8.378;2022-12-18T11:00:33;25.37;;;13.87;;
49235;SDS011;35067;48.134;8.378;2022-12-18T11:02:37;27.30;;;14.07;;
49235;SDS011;35067;48.134;8.378;2022-12-18T11:04:40;28.83;;;15.37;;
49235;SDS011;35067;48.134;8.378;2022-12-18T11:07:01;25.87;;;14.33;;
49235;SDS011;35067;48.134;8.378;2022-12-18T11:09:20;31.30;;;15.73;;
49235;SDS011;35067;48.134;8.378;2022-12-18T11:11:24;25.67;;;13.63;;
49235;SDS011;35067;48.134;8.378;2022-12-18T11:13:26;27.90;;;15.10;;
49235;SDS011;35067;48.134;8.378;2022-12-18T11:15:29;28.30;;;15.73;;
49235;SDS011;35067;48.134;8.378;2022-12-18T11:17:31;29.33;;;15.70;;
49235;SDS011;35067;48.134;8.378;2022-12-18T11:19:36;26.37;;;15.00;;
49235;SDS011;35067;48.134;8.378;2022-12-18T11:21:40;30.17;;;16.03;;
49235;SDS011;35067;48.134;8.378;2022-12-18T11:23:51;29.80;;;16.67;;
49235;SDS011;35067;48.134;8.378;2022-12-18T11:25:59;29.27;;;15.87;;
49235;SDS011;35067;48.134;8.378;2022-12-18T11:30:36;28.53;;;15.03;;
49235;SDS011;35067;48.134;8.378;2022-12-18T11:32:38;29.40;;;14.87;;
49235;SDS011;35067;48.134;8.378;2022-12-18T11:34:46;29.07;;;15.30;;
49235;SDS011;35067;48.134;8.378;2022-12-18T11:36:55;30.07;;;16.33;;
49235;SDS011;35067;48.134;8.378;2022-12-18T11:38:59;30.13;;;16.47;;
49235;SDS011;35067;48.134;8.378;2022-12-18T11:43:58;29.30;;;15.13;;
49235;SDS011;35067;48.134;8.378;2022-12-18T11:48:18;28.33;;;15.33;;
49235;SDS011;35067;48.134;8.378;2022-12-18T11:50:41;26.57;;;14.10;;
49235;SDS011;35067;48.134;8.378;2022-12-18T11:52:50;28.27;;;15.10;;
49235;SDS011;35067;48.134;8.378;2022-12-18T11:54:51;30.83;;;17.07;;
49235;SDS011;35067;48.134;8.378;2022-12-18T11:56:56;26.73;;;14.57;;
49235;SDS011;35067;48.134;8.378;2022-12-18T12:01:38;24.60;;;14.00;;
49235;SDS011;35067;48.134;8.378;2022-12-18T12:03:55;33.43;;;16.80;;
49235;SDS011;35067;48.134;8.378;2022-12-18T12:06:37;29.57;;;15.33;;
49235;SDS011;35067;48.134;8.378;2022-12-18T12:14:32;28.60;;;15.70;;
49235;SDS011;35067;48.134;8.378;2022-12-18T12:16:57;30.13;;;14.73;;
49235;SDS011;35067;48.134;8.378;2022-12-18T12:19:12;29.50;;;16.13;;
49235;SDS011;35067;48.134;8.378;2022-12-18T12:21:41;30.00;;;15.60;;
49235;SDS011;35067;48.134;8.378;2022-12-18T12:24:02;26.23;;;13.93;;
49235;SDS011;35067;48.134;8.378;2022-12-18T12:26:42;32.47;;;16.07;;
49235;SDS011;35067;48.134;8.378;2022-12-18T12:36:21;27.53;;;13.90;;
49235;SDS011;35067;48.134;8.378;2022-12-18T12:38:37;30.73;;;15.77;;
49235;SDS011;35067;48.134;8.378;2022-12-18T12:40:51;29.80;;;14.97;;
49235;SDS011;35067;48.134;8.378;2022-12-18T12:43:02;28.67;;;14.33;;
49235;SDS011;35067;48.134;8.378;2022-12-18T12:45:28;28.40;;;14.90;;
49235;SDS011;35067;48.134;8.378;2022-12-18T12:47:46;29.80;;;15.20;;
49235;SDS011;35067;48.134;8.378;2022-12-18T12:49:49;29.83;;;15.77;;
49235;SDS011;35067;48.134;8.378;2022-12-18T12:52:00;29.57;;;14.50;;
49235;SDS011;35067;48.134;8.378;2022-12-18T12:54:28;27.70;;;13.83;;
49235;SDS011;35067;48.134;8.378;2022-12-18T12:56:36;28.63;;;14.77;;
49235;SDS011;35067;48.134;8.378;2022-12-18T12:59:01;26.83;;;14.57;;
49235;SDS011;35067;48.134;8.378;2022-12-18T13:03:42;32.13;;;16.80;;
49235;SDS011;35067;48.134;8.378;2022-12-18T13:06:14;31.47;;;15.43;;
49235;SDS011;35067;48.134;8.378;2022-12-18T13:08:55;31.40;;;15.10;;
49235;SDS011;35067;48.134;8.378;2022-12-18T13:10:59;29.73;;;14.97;;
49235;SDS011;35067;48.134;8.378;2022-12-18T13:13:18;28.77;;;14.57;;